Time;durP1;ratioP1;P1;durP2;ratioP2;P2;SDS_P1;SDS_P2;PMS_P1;PMS_P2;Temp;Humidity;BMP_temperature;BMP_pressure;BME280_temperature;BME280_humidity;BME280_pressure;Samples;Min_cycle;Max_cycle;Signal;HPM_P1;HPM_P2
2022/06/12 00:01:17;;;;;;;19.65;5.30;;;;;;;19.54;87.89;101828.84;5055940;28;20067;-73
2022/06/12 00:03:44;;;;;;;16.52;5.50;;;;;;;19.49;86.12;101820.94;5057106;28;21120;-75
2022/06/12 00:06:12;;;;;;;20.75;6.30;;;;;;;19.45;86.71;101830.66;5047557;28;20556;-73
2022/06/12 00:08:39;;;;;;;20.02;7.75;;;;;;;19.31;86.53;101831.69;5052259;28;20098;-74
2022/06/12 00:11:14;;;;;;;19.35;8.43;;;;;;;19.17;89.59;101828.38;5066155;28;20080;-75
2022/06/12 00:13:44;;;;;;;22.20;9.95;;;;;;;19.02;90.68;101833.44;5054098;28;20202;-75
2022/06/12 00:16:13;;;;;;;22.60;8.50;;;;;;;19.02;89.81;101832.63;5062695;28;20044;-73
2022/06/12 00:18:40;;;;;;;27.00;8.75;;;;;;;19.10;89.42;101840.50;5058037;28;20576;-72
2022/06/12 00:21:12;;;;;;;16.50;6.35;;;;;;;19.13;91.34;101834.03;5053590;28;20152;-75
2022/06/12 00:23:57;;;;;;;17.58;6.07;;;;;;;19.18;93.15;101833.56;5059776;28;20476;-74
2022/06/12 00:26:32;;;;;;;14.80;6.23;;;;;;;19.21;91.14;101835.50;5052764;28;20052;-73
2022/06/12 00:29:08;;;;;;;16.13;6.32;;;;;;;19.21;91.20;101829.09;5054666;28;20132;-73
2022/06/12 00:31:38;;;;;;;15.88;6.32;;;;;;;19.19;91.24;101831.53;5056645;28;20128;-74
2022/06/12 00:34:06;;;;;;;14.68;6.00;;;;;;;19.15;90.77;101823.19;5055439;28;20091;-73
2022/06/12 00:36:33;;;;;;;19.27;6.70;;;;;;;19.14;91.66;101823.63;5055681;28;20460;-72
2022/06/12 00:39:00;;;;;;;15.75;6.40;;;;;;;19.08;91.91;101825.31;5053534;28;20048;-73
2022/06/12 00:41:27;;;;;;;15.48;6.60;;;;;;;19.04;92.85;101828.19;5060622;28;20140;-73
2022/06/12 00:43:54;;;;;;;15.77;6.63;;;;;;;18.98;93.75;101826.31;5057591;28;20055;-75
2022/06/12 00:46:49;;;;;;;12.30;5.70;;;;;;;18.90;96.04;101842.47;5047813;28;20059;-72
2022/06/12 00:49:44;;;;;;;19.73;7.43;;;;;;;18.83;96.27;101836.97;5053057;28;20040;-76
2022/06/12 00:52:18;;;;;;;20.23;7.18;;;;;;;18.81;95.20;101844.25;5052877;28;20084;-74
2022/06/12 00:54:47;;;;;;;17.52;6.68;;;;;;;18.78;94.14;101842.28;5057762;28;20102;-72
2022/06/12 00:57:16;;;;;;;16.70;6.00;;;;;;;18.72;96.83;101836.38;5054816;28;20075;-73
2022/06/12 00:59:50;;;;;;;14.18;5.93;;;;;;;18.65;97.37;101835.69;5050194;28;20045;-72
2022/06/12 01:02:22;;;;;;;16.13;6.65;;;;;;;18.64;98.13;101834.91;5059068;28;20098;-75
2022/06/12 01:07:41;;;;;;;14.05;5.50;;;;;;;18.54;99.23;101830.28;5060732;28;20053;-75
2022/06/12 01:10:12;;;;;;;17.17;6.28;;;;;;;18.53;97.85;101828.66;5054178;28;20117;-72
2022/06/12 01:12:48;;;;;;;16.35;5.75;;;;;;;18.49;97.71;101821.56;5057881;28;21912;-73
2022/06/12 01:15:22;;;;;;;16.13;6.50;;;;;;;18.43;99.32;101826.84;5050440;28;20115;-73
2022/06/12 01:17:49;;;;;;;17.15;6.30;;;;;;;18.37;100.00;101828.53;5055826;28;20131;-74
2022/06/12 01:20:20;;;;;;;20.77;6.32;;;;;;;18.30;100.00;101823.03;5058054;28;20056;-72
2022/06/12 01:23:24;;;;;;;15.23;7.07;;;;;;;18.28;100.00;101825.44;5059661;28;20053;-72
2022/06/12 01:26:00;;;;;;;16.38;6.28;;;;;;;18.20;100.00;101828.78;5057935;28;20067;-76
2022/06/12 01:28:32;;;;;;;19.35;6.03;;;;;;;18.15;100.00;101827.22;5057536;28;20708;-73
2022/06/12 01:31:13;;;;;;;15.90;6.13;;;;;;;18.11;100.00;101826.50;5060713;28;20128;-74
2022/06/12 01:34:22;;;;;;;18.42;6.70;;;;;;;18.06;100.00;101834.59;5050158;28;20568;-71
2022/06/12 01:36:57;;;;;;;17.42;6.85;;;;;;;18.00;100.00;101828.66;5070663;28;20127;-75
2022/06/12 01:40:04;;;;;;;15.00;6.35;;;;;;;17.98;100.00;101828.28;5052676;28;20059;-73
2022/06/12 01:42:43;;;;;;;14.63;6.10;;;;;;;17.96;100.00;101837.09;5029725;28;20078;-77
2022/06/12 01:45:18;;;;;;;13.35;6.20;;;;;;;17.87;100.00;101827.63;5065827;28;20076;-72
2022/06/12 01:47:57;;;;;;;17.47;6.67;;;;;;;17.77;100.00;101826.56;5056358;28;20049;-75
2022/06/12 01:50:27;;;;;;;19.15;6.18;;;;;;;17.75;100.00;101831.00;5057078;28;20132;-73
2022/06/12 01:53:08;;;;;;;16.55;6.10;;;;;;;17.69;100.00;101835.47;5062490;28;20097;-72
2022/06/12 01:55:44;;;;;;;13.95;6.03;;;;;;;17.67;100.00;101838.69;5060326;28;20479;-75
2022/06/12 01:58:31;;;;;;;18.35;6.00;;;;;;;17.60;100.00;101826.78;5055483;28;20045;-72
2022/06/12 02:01:36;;;;;;;16.40;6.07;;;;;;;17.54;100.00;101831.25;5057831;28;20424;-73
2022/06/12 02:04:29;;;;;;;17.75;5.72;;;;;;;17.50;100.00;101827.72;5058635;28;20288;-74
2022/06/12 02:07:12;;;;;;;14.93;6.15;;;;;;;17.46;100.00;101829.75;5047495;28;20049;-75
2022/06/12 02:09:45;;;;;;;20.00;6.68;;;;;;;17.36;100.00;101828.66;5057182;28;20059;-72
2022/06/12 02:15:28;;;;;;;19.42;6.82;;;;;;;17.24;100.00;101831.16;5057920;28;20045;-72
2022/06/12 02:18:11;;;;;;;20.10;6.88;;;;;;;17.20;100.00;101842.41;5059117;28;20132;-73
2022/06/12 02:20:43;;;;;;;13.38;6.15;;;;;;;17.18;100.00;101827.25;5056613;28;20159;-72
2022/06/12 02:23:21;;;;;;;12.48;6.45;;;;;;;17.13;100.00;101836.91;5056139;28;20127;-72
2022/06/12 02:25:52;;;;;;;18.42;6.72;;;;;;;17.10;100.00;101834.91;5067246;28;20516;-72
2022/06/12 02:28:26;;;;;;;16.42;6.68;;;;;;;17.09;100.00;101833.34;5059936;28;20048;-72
2022/06/12 02:30:57;;;;;;;22.17;7.10;;;;;;;17.08;100.00;101822.56;5061662;28;20191;-73
2022/06/12 02:33:30;;;;;;;21.60;6.68;;;;;;;17.05;100.00;101831.78;5057736;28;20048;-72
2022/06/12 02:36:27;;;;;;;17.02;5.97;;;;;;;16.98;100.00;101829.06;5064804;28;20135;-75
2022/06/12 02:38:58;;;;;;;17.52;6.53;;;;;;;16.95;100.00;101843.88;5058007;28;20047;-74
2022/06/12 02:41:33;;;;;;;12.50;5.50;;;;;;;16.85;100.00;101842.75;5057056;28;20056;-72
2022/06/12 02:44:06;;;;;;;18.37;6.63;;;;;;;16.81;100.00;101830.78;5055403;28;20067;-75
2022/06/12 02:46:40;;;;;;;16.23;5.97;;;;;;;16.78;100.00;101833.63;5062443;28;20310;-72
2022/06/12 02:49:09;;;;;;;13.90;5.90;;;;;;;16.76;100.00;101831.25;5055642;28;20118;-74
2022/06/12 02:52:02;;;;;;;17.42;6.38;;;;;;;16.69;100.00;101834.13;5061319;28;20079;-73
2022/06/12 02:54:34;;;;;;;14.25;6.43;;;;;;;16.64;100.00;101831.75;5074008;28;20059;-73
2022/06/12 02:57:28;;;;;;;15.13;6.13;;;;;;;16.53;100.00;101830.25;5066531;28;20048;-73
2022/06/12 03:00:16;;;;;;;18.15;7.22;;;;;;;16.47;100.00;101821.50;5061816;28;20153;-73
2022/06/12 03:02:55;;;;;;;19.00;6.40;;;;;;;16.44;100.00;101822.31;5053838;28;20163;-74
2022/06/12 03:05:26;;;;;;;17.55;7.40;;;;;;;16.38;100.00;101817.56;5057438;28;20055;-72
2022/06/12 03:08:00;;;;;;;17.77;7.15;;;;;;;16.36;100.00;101825.56;5061361;28;20488;-72
2022/06/12 03:10:32;;;;;;;15.05;6.35;;;;;;;16.33;100.00;101832.75;5058188;28;20053;-71
2022/06/12 03:13:01;;;;;;;16.80;6.65;;;;;;;16.29;100.00;101815.25;5065787;28;20395;-72
2022/06/12 03:15:39;;;;;;;17.25;6.97;;;;;;;16.28;100.00;101824.03;5065035;28;20554;-73
2022/06/12 03:18:11;;;;;;;13.40;6.70;;;;;;;16.23;100.00;101818.88;5050924;28;20519;-72
2022/06/12 03:20:50;;;;;;;15.88;7.03;;;;;;;16.15;100.00;101818.13;5063107;28;20061;-73
2022/06/12 03:23:23;;;;;;;12.90;6.47;;;;;;;16.10;100.00;101818.53;5065448;28;20055;-72
2022/06/12 03:25:53;;;;;;;17.38;7.38;;;;;;;16.07;100.00;101821.38;5063037;28;20174;-72
2022/06/12 03:28:28;;;;;;;20.55;7.40;;;;;;;16.06;100.00;101822.59;5060409;28;20046;-76
2022/06/12 03:31:15;;;;;;;;;;;;;;;16.06;100.00;101831.75;5061419;28;20090;-72
2022/06/12 03:34:05;;;;;;;18.13;6.57;;;;;;;16.01;100.00;101823.00;5056691;28;19925;-74
2022/06/12 03:36:37;;;;;;;15.52;6.50;;;;;;;16.00;100.00;101829.78;5058757;28;20064;-75
2022/06/12 03:39:25;;;;;;;18.00;7.45;;;;;;;15.98;100.00;101823.81;5055605;28;20515;-74
2022/06/12 03:42:05;;;;;;;21.40;6.40;;;;;;;15.97;100.00;101830.59;5061122;28;20480;-75
2022/06/12 03:44:46;;;;;;;14.55;6.68;;;;;;;15.94;100.00;101832.22;5061956;28;20052;-72
2022/06/12 03:47:18;;;;;;;18.17;7.38;;;;;;;15.92;100.00;101829.03;5059747;28;21023;-71
2022/06/12 03:49:50;;;;;;;18.73;7.50;;;;;;;15.92;100.00;101826.25;5061015;28;20144;-73
2022/06/12 03:52:27;;;;;;;16.73;7.93;;;;;;;15.91;100.00;101827.44;5055042;28;20125;-73
2022/06/12 03:54:56;;;;;;;19.42;7.20;;;;;;;15.91;100.00;101826.63;5061723;28;20095;-72
2022/06/12 03:57:53;;;;;;;16.20;7.13;;;;;;;15.88;100.00;101827.44;5064038;28;20041;-76
2022/06/12 04:00:37;;;;;;;17.30;7.13;;;;;;;15.85;100.00;101836.63;5061111;28;20500;-72
2022/06/12 04:03:09;;;;;;;15.25;7.13;;;;;;;15.86;100.00;101830.66;5059143;28;20147;-74
2022/06/12 04:05:44;;;;;;;17.42;6.65;;;;;;;15.85;100.00;101840.22;5061064;28;20055;-73
2022/06/12 04:08:17;;;;;;;20.07;7.83;;;;;;;15.87;100.00;101834.25;5057753;28;20147;-72
2022/06/12 04:10:44;;;;;;;17.95;7.43;;;;;;;15.84;100.00;101827.50;5061554;28;20306;-74
2022/06/12 04:13:13;;;;;;;15.18;6.82;;;;;;;15.88;100.00;101831.03;5059357;28;20130;-74
2022/06/12 04:15:56;;;;;;;17.67;8.40;;;;;;;15.92;100.00;101831.81;5056361;28;20068;-72
2022/06/12 04:18:25;;;;;;;22.55;8.30;;;;;;;15.92;100.00;101831.00;5059837;28;20040;-73
2022/06/12 04:21:23;;;;;;;17.90;6.65;;;;;;;15.91;100.00;101838.63;5050500;28;20053;-72
2022/06/12 04:23:53;;;;;;;19.70;7.20;;;;;;;15.91;100.00;101833.03;5060317;28;20056;-72
2022/06/12 04:26:37;;;;;;;16.45;6.82;;;;;;;15.93;100.00;101824.25;5062022;28;20463;-73
2022/06/12 04:29:18;;;;;;;15.82;7.05;;;;;;;15.96;100.00;101829.03;5060243;28;20055;-72
2022/06/12 04:31:48;;;;;;;15.95;7.10;;;;;;;16.01;100.00;101842.53;5059601;28;20048;-72
2022/06/12 04:34:23;;;;;;;22.23;7.28;;;;;;;16.04;100.00;101841.72;5060282;28;20040;-72
2022/06/12 04:36:56;;;;;;;16.95;7.47;;;;;;;16.08;100.00;101839.72;5056304;28;20056;-72
2022/06/12 04:39:28;;;;;;;13.75;7.18;;;;;;;16.13;100.00;101839.28;5060999;28;20043;-73
2022/06/12 04:41:55;;;;;;;20.15;7.10;;;;;;;16.19;100.00;101846.00;5057172;28;20052;-75
2022/06/12 04:44:23;;;;;;;15.73;7.18;;;;;;;16.27;100.00;101847.56;5061096;28;20056;-71
2022/06/12 04:46:53;;;;;;;16.73;7.50;;;;;;;16.25;100.00;101841.59;5075139;28;20052;-72
2022/06/12 04:49:23;;;;;;;23.27;7.32;;;;;;;16.21;100.00;101840.81;5056778;28;20131;-75
2022/06/12 04:51:52;;;;;;;20.08;6.85;;;;;;;16.31;100.00;101843.56;5056684;28;20139;-74
2022/06/12 04:54:19;;;;;;;15.20;6.45;;;;;;;16.34;100.00;101848.34;5059378;28;20131;-79
2022/06/12 04:56:46;;;;;;;19.98;7.93;;;;;;;16.39;100.00;101847.09;5059172;28;20155;-73
2022/06/12 04:59:14;;;;;;;18.23;7.72;;;;;;;16.42;100.00;101840.69;5057898;28;20513;-76
2022/06/12 05:01:41;;;;;;;20.13;8.18;;;;;;;16.53;100.00;101842.22;5057453;28;20132;-75
2022/06/12 05:04:08;;;;;;;16.52;7.63;;;;;;;16.64;100.00;101839.34;5062126;28;20059;-73
2022/06/12 05:06:37;;;;;;;20.88;7.47;;;;;;;16.71;100.00;101834.47;5065075;28;20080;-75
2022/06/12 05:09:05;;;;;;;19.20;6.97;;;;;;;16.79;100.00;101838.81;5063732;28;20098;-76
2022/06/12 05:11:32;;;;;;;15.57;6.50;;;;;;;16.87;100.00;101842.34;5062461;28;20134;-73
2022/06/12 05:13:59;;;;;;;19.38;6.45;;;;;;;16.99;100.00;101836.22;5059693;28;20332;-76
2022/06/12 05:16:37;;;;;;;17.40;6.90;;;;;;;17.08;100.00;101836.56;5061351;28;20775;-75
2022/06/12 05:19:06;;;;;;;15.35;5.63;;;;;;;17.14;100.00;101826.47;5062280;28;20123;-73
2022/06/12 05:21:33;;;;;;;19.00;6.35;;;;;;;17.30;100.00;101832.31;5055409;28;20067;-75
2022/06/12 05:24:01;;;;;;;16.67;4.88;;;;;;;17.33;100.00;101835.09;5063754;28;20079;-76
2022/06/12 05:26:30;;;;;;;12.05;4.07;;;;;;;17.41;100.00;101832.97;5065814;28;20054;-74
2022/06/12 05:28:57;;;;;;;10.45;3.78;;;;;;;17.41;94.69;101832.97;5064596;28;20127;-74
2022/06/12 05:31:24;;;;;;;12.52;3.92;;;;;;;17.51;94.03;101835.69;5065209;28;20136;-77
2022/06/12 05:33:50;;;;;;;12.52;3.42;;;;;;;17.60;91.75;101832.38;5067197;28;20053;-76
2022/06/12 05:36:22;;;;;;;11.95;4.05;;;;;;;17.66;92.62;101825.13;5062259;28;20094;-74
2022/06/12 05:38:49;;;;;;;13.02;4.10;;;;;;;17.72;92.47;101835.44;5070358;28;20048;-74
2022/06/12 05:41:17;;;;;;;13.65;4.38;;;;;;;17.82;92.28;101833.72;5066824;28;20058;-77
2022/06/12 05:43:44;;;;;;;10.48;4.63;;;;;;;17.94;92.07;101833.94;5064024;28;20127;-78
2022/06/12 05:46:13;;;;;;;10.90;3.65;;;;;;;18.05;92.85;101842.19;5061038;28;20084;-75
2022/06/12 05:48:41;;;;;;;16.20;3.67;;;;;;;18.17;91.53;101836.03;5063175;28;20051;-74
2022/06/12 05:51:08;;;;;;;13.70;3.30;;;;;;;18.27;91.14;101831.47;5064192;28;20062;-74
2022/06/12 05:53:38;;;;;;;10.75;3.25;;;;;;;18.36;91.62;101840.19;5065589;28;20143;-75
2022/06/12 05:56:11;;;;;;;8.23;2.97;;;;;;;18.47;90.25;101832.38;5065017;28;20074;-77
2022/06/12 05:58:39;;;;;;;14.75;2.70;;;;;;;18.58;89.68;101839.41;5067052;28;20136;-78
2022/06/12 06:01:09;;;;;;;15.82;3.33;;;;;;;18.63;89.08;101838.91;5062104;28;20504;-73
2022/06/12 06:03:36;;;;;;;8.70;2.33;;;;;;;18.73;86.81;101842.78;5063731;28;20080;-74
2022/06/12 06:06:05;;;;;;;10.43;2.42;;;;;;;18.84;86.38;101844.19;5065167;28;20047;-74
2022/06/12 06:08:32;;;;;;;17.45;2.67;;;;;;;18.93;83.58;101840.84;5058941;28;20079;-79
2022/06/12 06:10:59;;;;;;;6.95;2.13;;;;;;;18.87;79.79;101848.91;5057231;28;20516;-76
2022/06/12 06:13:25;;;;;;;12.20;3.28;;;;;;;18.95;81.38;101847.59;5065313;28;20396;-74
2022/06/12 06:15:52;;;;;;;9.57;3.17;;;;;;;18.87;74.78;101854.53;5059131;28;20051;-76
2022/06/12 06:18:20;;;;;;;9.70;2.78;;;;;;;19.04;74.97;101847.03;5064267;28;20511;-76
2022/06/12 06:20:47;;;;;;;16.02;2.85;;;;;;;19.18;76.68;101844.78;5062792;28;20116;-79
2022/06/12 06:23:14;;;;;;;11.52;2.38;;;;;;;19.33;76.98;101848.13;5059247;28;20120;-76
2022/06/12 06:25:42;;;;;;;12.30;2.20;;;;;;;19.38;74.28;101847.63;5061022;28;20535;-77
2022/06/12 06:28:11;;;;;;;15.15;2.70;;;;;;;19.33;72.40;101850.91;5062238;28;20564;-77
2022/06/12 06:30:38;;;;;;;12.02;2.45;;;;;;;19.45;72.71;101850.28;5054415;28;20041;-74
2022/06/12 06:33:06;;;;;;;12.27;2.38;;;;;;;19.56;72.57;101857.28;5063016;28;20051;-75
2022/06/12 06:35:33;;;;;;;10.55;2.60;;;;;;;19.51;71.50;101843.75;5056667;28;20673;-76
2022/06/12 06:37:59;;;;;;;9.85;2.08;;;;;;;19.64;71.75;101850.28;5060226;28;20045;-72
2022/06/12 06:40:29;;;;;;;14.98;2.55;;;;;;;19.64;70.43;101846.72;5061780;28;20123;-73
2022/06/12 06:42:58;;;;;;;19.70;2.90;;;;;;;19.72;72.44;101848.13;5060252;28;20052;-73
2022/06/12 06:48:11;;;;;;;18.03;2.60;;;;;;;19.75;69.46;101841.66;5060807;28;20135;-74
2022/06/12 06:50:40;;;;;;;13.18;2.80;;;;;;;19.84;70.35;101839.03;5055090;28;21109;-72
2022/06/12 06:53:06;;;;;;;3.20;1.10;;;;;;;19.77;69.99;101861.66;5063952;28;20048;-71
2022/06/12 06:55:33;;;;;;;10.07;2.00;;;;;;;19.63;69.09;101853.53;5055701;28;20132;-71
2022/06/12 06:58:00;;;;;;;12.32;3.08;;;;;;;19.65;69.11;101851.09;5059332;28;20481;-74
2022/06/12 07:00:32;;;;;;;9.85;2.72;;;;;;;19.71;69.39;101850.16;5061900;28;20041;-72
2022/06/12 07:02:59;;;;;;;21.45;2.90;;;;;;;19.86;70.08;101845.84;5061204;28;20047;-73
2022/06/12 07:05:26;;;;;;;10.50;2.53;;;;;;;19.82;70.03;101845.13;5067476;28;20045;-74
2022/06/12 07:07:53;;;;;;;12.32;2.97;;;;;;;19.87;71.66;101852.22;5056483;28;20076;-71
2022/06/12 07:10:23;;;;;;;14.10;3.25;;;;;;;20.04;70.70;101843.41;5058141;28;20120;-72
2022/06/12 07:12:51;;;;;;;19.00;4.80;;;;;;;20.20;69.89;101849.13;5060167;28;20088;-73
2022/06/12 07:15:19;;;;;;;16.73;3.90;;;;;;;20.28;70.07;101849.72;5067355;28;20489;-72
2022/06/12 07:17:47;;;;;;;18.20;3.35;;;;;;;20.19;69.84;101843.94;5068817;28;20500;-74
2022/06/12 07:20:16;;;;;;;19.00;3.40;;;;;;;20.27;69.49;101850.94;5064420;28;20048;-72
2022/06/12 07:22:43;;;;;;;13.27;3.85;;;;;;;20.19;69.31;101850.31;5064646;28;20045;-72
2022/06/12 07:25:11;;;;;;;17.38;3.55;;;;;;;20.22;68.63;101843.81;5066201;28;20084;-72
2022/06/12 07:27:39;;;;;;;1.63;0.75;;;;;;;20.27;68.91;101857.38;5062843;28;20846;-71
2022/06/12 07:30:09;;;;;;;4.60;1.67;;;;;;;20.35;68.29;101852.38;5061378;28;20135;-72
2022/06/12 07:32:36;;;;;;;11.05;2.85;;;;;;;20.52;66.58;101856.00;5064755;28;20055;-73
2022/06/12 07:35:03;;;;;;;4.38;1.80;;;;;;;20.54;64.82;101859.94;5056174;28;20108;-72
2022/06/12 07:37:30;;;;;;;8.30;2.08;;;;;;;20.60;63.75;101846.16;5063624;28;20049;-72
2022/06/12 07:39:57;;;;;;;7.13;1.90;;;;;;;20.59;61.56;101867.06;5058192;28;20044;-73
2022/06/12 07:42:29;;;;;;;7.97;2.03;;;;;;;20.70;59.36;101861.97;5063601;28;20045;-72
2022/06/12 07:44:55;;;;;;;11.80;2.92;;;;;;;20.77;59.93;101873.06;5056454;28;20147;-74
2022/06/12 07:47:22;;;;;;;5.28;1.95;;;;;;;20.73;57.75;101855.47;5062059;28;20134;-71
2022/06/12 07:49:48;;;;;;;16.48;2.58;;;;;;;20.89;58.56;101864.69;5063041;28;20136;-73
2022/06/12 07:52:15;;;;;;;16.15;3.08;;;;;;;21.04;58.49;101851.09;5055414;28;20207;-71
2022/06/12 07:54:48;;;;;;;11.23;2.55;;;;;;;21.17;58.36;101854.75;5061510;28;20049;-71
2022/06/12 07:57:15;;;;;;;10.00;2.22;;;;;;;21.14;55.94;101861.28;5065730;28;20052;-72
2022/06/12 07:59:41;;;;;;;9.50;2.45;;;;;;;21.16;56.67;101856.00;5059357;28;20049;-74
2022/06/12 08:02:08;;;;;;;12.40;3.05;;;;;;;21.37;56.78;101852.59;5064115;28;20045;-72
2022/06/12 08:04:35;;;;;;;9.13;1.58;;;;;;;21.18;55.01;101854.31;5064448;28;20678;-72
2022/06/12 08:07:02;;;;;;;10.88;2.42;;;;;;;21.18;55.93;101845.88;5062621;28;20069;-72
2022/06/12 08:09:29;;;;;;;8.10;2.65;;;;;;;21.14;55.93;101852.81;5059808;28;20136;-73
2022/06/12 08:11:56;;;;;;;14.73;2.90;;;;;;;21.37;57.77;101852.59;5064765;28;20140;-72
2022/06/12 08:14:23;;;;;;;7.55;2.00;;;;;;;21.25;56.07;101865.38;5066205;28;20048;-73
2022/06/12 08:16:51;;;;;;;13.00;3.22;;;;;;;21.29;56.05;101854.03;5059553;28;20155;-74
2022/06/12 08:22:04;;;;;;;;;;;;;;;21.45;56.98;101857.59;5063866;28;20159;-72
2022/06/12 08:24:31;;;;;;;9.15;2.35;;;;;;;21.55;55.50;101852.88;5064197;28;20756;-73
2022/06/12 08:26:58;;;;;;;8.13;2.03;;;;;;;21.59;53.81;101847.94;5061378;28;20555;-72
2022/06/12 08:29:25;;;;;;;9.82;2.72;;;;;;;21.80;52.22;101844.56;5056731;28;20076;-73
2022/06/12 08:31:57;;;;;;;3.63;1.05;;;;;;;21.93;51.88;101853.81;5049946;28;20053;-72
2022/06/12 08:34:41;;;;;;;11.55;2.97;;;;;;;22.06;51.85;101855.41;5055045;28;20052;-72
2022/06/12 08:37:16;;;;;;;9.77;2.45;;;;;;;22.10;51.22;101850.47;5053316;28;20484;-73
2022/06/12 08:39:43;;;;;;;10.70;2.00;;;;;;;21.91;47.38;101853.47;5049521;28;20693;-71
2022/06/12 08:42:19;;;;;;;9.32;2.08;;;;;;;22.23;48.50;101858.91;5049689;28;20223;-74
2022/06/12 08:44:52;;;;;;;9.10;2.00;;;;;;;22.27;46.56;101853.94;5053806;28;20052;-76
2022/06/12 08:47:44;;;;;;;7.88;1.73;;;;;;;22.37;43.44;101853.63;5059203;28;20107;-77
2022/06/12 08:50:10;;;;;;;10.25;2.03;;;;;;;22.37;42.80;101852.81;5058953;28;20044;-72
2022/06/12 08:52:46;;;;;;;7.00;1.60;;;;;;;22.39;42.62;101856.81;5054479;28;20517;-72
2022/06/12 08:55:34;;;;;;;9.15;1.95;;;;;;;22.58;42.09;101849.38;5059683;28;20599;-73
2022/06/12 08:58:25;;;;;;;7.70;1.60;;;;;;;22.56;41.46;101843.38;5050573;28;20048;-75
2022/06/12 09:00:54;;;;;;;1.63;0.85;;;;;;;22.61;41.01;101842.81;5061145;28;20053;-74
2022/06/12 09:03:24;;;;;;;5.93;1.30;;;;;;;22.68;39.74;101845.41;5052162;28;20504;-73
2022/06/12 09:06:02;;;;;;;6.40;1.17;;;;;;;22.66;38.77;101840.22;5055528;28;20048;-72
2022/06/12 09:08:54;;;;;;;6.82;1.92;;;;;;;22.68;39.58;101837.72;5052332;28;20049;-72
2022/06/12 09:11:32;;;;;;;4.50;1.02;;;;;;;22.48;41.17;101828.72;5052029;28;20041;-74
2022/06/12 09:14:07;;;;;;;8.63;1.60;;;;;;;22.75;41.74;101825.44;5060332;28;20087;-76
2022/06/12 09:17:09;;;;;;;12.50;1.98;;;;;;;23.04;42.71;101823.19;5046087;28;20049;-74
2022/06/12 09:19:54;;;;;;;3.42;1.00;;;;;;;22.83;40.80;101823.13;5058269;28;20715;-74
2022/06/12 09:22:35;;;;;;;7.25;1.63;;;;;;;23.01;41.32;101815.63;5056498;28;20144;-73
2022/06/12 09:25:19;;;;;;;3.60;1.02;;;;;;;22.63;41.08;101827.03;5057918;28;20508;-73
2022/06/12 09:27:45;;;;;;;11.32;1.83;;;;;;;22.82;41.28;101819.53;5047958;28;20041;-73
2022/06/12 09:30:18;;;;;;;7.25;1.45;;;;;;;22.82;42.26;101818.75;5053531;28;20128;-75
2022/06/12 09:32:56;;;;;;;4.78;1.60;;;;;;;22.81;42.82;101809.47;5060072;28;20143;-73
2022/06/12 09:35:41;;;;;;;7.20;1.50;;;;;;;23.12;41.95;101815.28;5057943;28;20058;-73
2022/06/12 09:38:19;;;;;;;11.15;2.13;;;;;;;23.08;40.96;101811.78;5056223;28;20072;-72
2022/06/12 09:41:01;;;;;;;8.15;1.90;;;;;;;23.21;41.19;101818.94;5055401;28;20053;-73
2022/06/12 09:43:36;;;;;;;8.13;1.70;;;;;;;23.43;40.62;101814.16;5054859;28;20586;-72
2022/06/12 09:46:21;;;;;;;8.00;1.33;;;;;;;23.52;40.09;101802.13;5061045;28;20057;-71
2022/06/12 09:49:02;;;;;;;3.00;0.50;;;;;;;23.38;40.58;101817.56;5047520;28;20061;-72
2022/06/12 09:51:34;;;;;;;8.18;2.25;;;;;;;23.62;41.11;101798.88;5055000;28;20128;-72
2022/06/12 09:54:10;;;;;;;7.75;1.83;;;;;;;23.62;40.96;101800.94;5067898;28;20155;-71
2022/06/12 09:56:53;;;;;;;11.70;1.95;;;;;;;23.64;40.45;101801.25;5056238;28;20106;-73
2022/06/12 09:59:33;;;;;;;4.38;1.60;;;;;;;23.37;42.16;101799.03;5059852;28;20135;-72
2022/06/12 10:02:04;;;;;;;9.00;2.05;;;;;;;23.59;42.71;101793.38;5053580;28;20143;-73
2022/06/12 10:04:41;;;;;;;4.88;1.23;;;;;;;23.33;42.90;101804.03;5059415;28;20064;-72
2022/06/12 10:07:15;;;;;;;1.20;0.40;;;;;;;23.34;41.49;101791.47;5056035;28;20083;-71
2022/06/12 10:10:12;;;;;;;5.90;1.67;;;;;;;23.42;41.92;101787.13;5058489;28;20058;-72
2022/06/12 10:12:44;;;;;;;11.48;1.88;;;;;;;23.47;41.67;101780.91;5065205;28;20084;-75
2022/06/12 10:15:18;;;;;;;2.83;1.58;;;;;;;23.23;42.90;101791.09;5060688;28;20048;-74
2022/06/12 10:17:56;;;;;;;6.70;1.50;;;;;;;23.34;42.79;101788.66;5055013;28;20147;-73
2022/06/12 10:20:30;;;;;;;13.13;2.05;;;;;;;23.69;43.28;101778.84;5064934;28;20037;-72
2022/06/12 10:22:57;;;;;;;16.88;2.40;;;;;;;23.71;42.42;101784.03;5063310;28;20089;-74
2022/06/12 10:25:34;;;;;;;11.43;2.25;;;;;;;24.03;42.99;101781.56;5058899;28;20164;-73
2022/06/12 10:28:22;;;;;;;12.48;2.40;;;;;;;24.08;41.62;101775.31;5058123;28;20505;-74
2022/06/12 10:31:04;;;;;;;10.82;2.17;;;;;;;24.21;42.96;101778.03;5054521;28;20052;-71
2022/06/12 10:33:42;;;;;;;9.75;2.55;;;;;;;24.24;42.43;101772.22;5063735;28;20183;-69
2022/06/12 10:36:23;;;;;;;7.70;2.03;;;;;;;24.07;42.72;101772.94;5052201;28;20164;-74
2022/06/12 10:38:50;;;;;;;8.90;2.20;;;;;;;24.48;42.88;101764.75;5067323;28;20140;-74
2022/06/12 10:41:23;;;;;;;5.47;1.55;;;;;;;24.71;41.30;101772.66;5064175;28;20156;-72
2022/06/12 10:43:52;;;;;;;10.27;1.75;;;;;;;24.52;41.27;101758.94;5060302;28;20590;-72
2022/06/12 10:46:32;;;;;;;6.82;1.88;;;;;;;24.61;41.22;101759.72;5060693;28;20054;-72
2022/06/12 10:49:16;;;;;;;10.43;2.08;;;;;;;24.84;41.05;101761.22;5065411;28;20618;-73
2022/06/12 10:51:44;;;;;;;9.30;2.20;;;;;;;24.71;41.95;101750.03;5059556;28;20132;-74
2022/06/12 10:54:16;;;;;;;12.88;2.63;;;;;;;24.89;43.24;101763.41;5061230;28;20171;-75
2022/06/12 10:56:42;;;;;;;15.30;2.25;;;;;;;24.86;42.05;101756.66;5058676;28;20044;-73
2022/06/12 10:59:32;;;;;;;11.77;2.72;;;;;;;24.93;42.48;101758.38;5050469;28;20052;-73
2022/06/12 11:02:12;;;;;;;14.27;2.15;;;;;;;25.01;40.97;101757.59;5045581;28;20049;-73
2022/06/12 11:04:53;;;;;;;4.68;1.08;;;;;;;24.99;38.87;101748.81;5052650;28;20163;-71
2022/06/12 11:07:32;;;;;;;8.75;1.95;;;;;;;25.29;39.77;101749.88;5048365;28;20045;-72
2022/06/12 11:10:30;;;;;;;12.48;2.30;;;;;;;25.49;40.34;101758.69;5050128;28;20049;-74
2022/06/12 11:13:21;;;;;;;12.30;2.28;;;;;;;25.55;39.42;101750.31;5055844;28;20163;-71
2022/06/12 11:16:24;;;;;;;13.50;2.58;;;;;;;25.95;39.96;101745.16;5056937;28;20497;-72
2022/06/12 11:19:10;;;;;;;1.58;0.88;;;;;;;25.58;39.33;101744.47;5060271;28;20774;-75
2022/06/12 11:21:46;;;;;;;1.38;0.82;;;;;;;25.72;38.94;101746.66;5056945;28;20570;-75
2022/06/12 11:24:35;;;;;;;10.07;2.67;;;;;;;26.13;38.62;101747.94;5056209;28;20051;-72
2022/06/12 11:27:23;;;;;;;9.52;2.40;;;;;;;26.55;39.73;101743.75;5038814;28;20051;-70
2022/06/12 11:30:10;;;;;;;9.90;2.20;;;;;;;26.48;39.16;101744.09;5056635;28;20047;-74
2022/06/12 11:32:57;;;;;;;8.07;2.22;;;;;;;26.27;38.02;101738.72;5056966;28;20048;-72
2022/06/12 11:36:15;;;;;;;12.45;2.70;;;;;;;25.91;38.74;101733.22;5060820;28;20056;-76
2022/06/12 11:39:13;;;;;;;10.20;2.40;;;;;;;25.71;39.14;101738.63;5029429;28;20052;-74
2022/06/12 11:42:17;;;;;;;8.90;2.38;;;;;;;25.83;38.07;101731.97;5055215;28;20080;-74
2022/06/12 11:44:56;;;;;;;9.02;1.95;;;;;;;26.44;38.00;101731.34;5058520;28;20058;-73
2022/06/12 11:47:56;;;;;;;9.10;2.30;;;;;;;27.13;37.48;101738.25;5065312;28;20048;-76
2022/06/12 11:50:31;;;;;;;12.18;2.05;;;;;;;27.18;36.22;101728.28;5060563;28;20079;-70
2022/06/12 11:53:34;;;;;;;10.82;3.08;;;;;;;27.39;37.83;101739.31;5050666;28;20059;-74
2022/06/12 11:56:18;;;;;;;9.68;2.65;;;;;;;28.09;37.52;101723.16;5037676;28;20045;-75
2022/06/12 11:58:51;;;;;;;15.07;2.38;;;;;;;27.95;36.46;101732.53;5054598;28;20198;-76
2022/06/12 12:01:18;;;;;;;12.82;2.45;;;;;;;27.83;36.95;101727.91;5057113;28;20043;-72
2022/06/12 12:04:21;;;;;;;13.05;2.05;;;;;;;28.01;36.85;101730.53;5052454;28;20087;-74